Time;durP1;ratioP1;P1;durP2;ratioP2;P2;SDS_P1;SDS_P2;PMS_P1;PMS_P2;Temp;Humidity;BMP_temperature;BMP_pressure;BME280_temperature;BME280_humidity;BME280_pressure;Samples;Min_cycle;Max_cycle;Signal;HPM_P1;HPM_P2
2024/04/21 00:02:24;;;;;;;6.20;3.33;;;7.50;99.90;;;;;;5512063;25;20004;-68
2024/04/21 00:04:50;;;;;;;6.60;3.55;;;7.50;99.90;;;;;;5514188;25;19993;-68
2024/04/21 00:07:16;;;;;;;5.25;3.30;;;7.50;99.90;;;;;;5507078;25;20457;-68
2024/04/21 00:09:41;;;;;;;6.32;3.50;;;7.50;99.90;;;;;;5513675;25;19997;-68
2024/04/21 00:12:07;;;;;;;5.35;3.50;;;7.50;99.90;;;;;;5511123;25;20033;-68
2024/04/21 00:14:32;;;;;;;9.43;3.63;;;7.50;99.90;;;;;;5473559;26;20696;-68
2024/04/21 00:16:58;;;;;;;5.45;3.15;;;7.50;99.90;;;;;;5476119;25;20164;-68
2024/04/21 00:19:23;;;;;;;4.32;2.97;;;7.50;99.90;;;;;;5509560;25;20483;-68
2024/04/21 00:21:49;;;;;;;5.18;3.10;;;7.50;99.90;;;;;;5505811;25;19989;-67
2024/04/21 00:24:14;;;;;;;6.05;3.25;;;7.50;99.90;;;;;;5481036;26;20541;-68
2024/04/21 00:26:40;;;;;;;4.15;2.97;;;7.50;99.90;;;;;;5513595;25;19994;-68
2024/04/21 00:29:06;;;;;;;4.40;3.15;;;7.50;99.90;;;;;;5518073;25;20466;-68
2024/04/21 00:31:31;;;;;;;5.20;3.33;;;7.50;99.90;;;;;;5508273;25;20002;-68
2024/04/21 00:33:57;;;;;;;6.40;3.47;;;7.50;99.90;;;;;;5508696;25;20379;-67
2024/04/21 00:36:22;;;;;;;6.18;3.70;;;7.50;99.90;;;;;;5502292;26;20085;-67
2024/04/21 00:38:48;;;;;;;7.53;3.60;;;7.50;99.90;;;;;;5510311;25;20005;-67
2024/04/21 00:41:14;;;;;;;5.90;3.50;;;7.50;99.90;;;;;;5508243;25;20008;-68
2024/04/21 00:43:39;;;;;;;7.20;3.63;;;7.40;99.90;;;;;;5511322;25;20065;-68
2024/04/21 00:46:06;;;;;;;5.82;3.83;;;7.40;99.90;;;;;;5479399;25;20013;-67
2024/04/21 00:48:33;;;;;;;5.10;3.45;;;7.40;99.90;;;;;;5508818;25;20008;-68
2024/04/21 00:51:00;;;;;;;5.95;3.42;;;7.40;99.90;;;;;;5504865;25;20005;-67
2024/04/21 00:53:26;;;;;;;4.82;3.38;;;7.40;99.90;;;;;;5508427;25;20012;-67
2024/04/21 00:55:53;;;;;;;5.38;3.22;;;7.40;99.90;;;;;;5481407;25;20037;-68
2024/04/21 00:58:19;;;;;;;8.75;4.22;;;7.40;99.90;;;;;;5512661;25;20022;-68
2024/04/21 01:00:46;;;;;;;5.60;3.83;;;7.40;99.90;;;;;;5510767;25;20508;-68
2024/04/21 01:03:12;;;;;;;7.18;3.70;;;7.40;99.90;;;;;;5509143;25;20462;-69
2024/04/21 01:05:38;;;;;;;7.97;3.72;;;7.40;99.90;;;;;;5504453;25;20504;-68
2024/04/21 01:08:05;;;;;;;6.40;3.60;;;7.50;99.90;;;;;;5481348;25;20426;-68
2024/04/21 01:10:31;;;;;;;7.45;4.00;;;7.50;99.90;;;;;;5479630;26;20009;-67
2024/04/21 01:12:57;;;;;;;6.85;4.00;;;7.50;99.90;;;;;;5513874;25;19989;-68
2024/04/21 01:15:22;;;;;;;10.52;3.65;;;7.40;99.90;;;;;;5503811;25;20005;-68
2024/04/21 01:17:48;;;;;;;5.45;3.90;;;7.30;99.90;;;;;;5508588;25;19997;-68
2024/04/21 01:20:15;;;;;;;6.28;3.65;;;7.30;99.90;;;;;;5514088;25;20005;-68
2024/04/21 01:22:44;;;;;;;4.97;3.30;;;7.30;99.90;;;;;;5504462;25;20251;-68
2024/04/21 01:25:09;;;;;;;6.30;3.10;;;7.30;99.90;;;;;;5474052;26;20383;-69
2024/04/21 01:27:35;;;;;;;3.92;3.03;;;7.20;99.90;;;;;;5507577;25;20465;-68
2024/04/21 01:30:00;;;;;;;5.38;3.30;;;7.20;99.90;;;;;;5505085;25;20433;-68
2024/04/21 01:32:26;;;;;;;5.25;3.45;;;7.20;99.90;;;;;;5509750;25;19997;-68
2024/04/21 01:34:51;;;;;;;4.15;3.00;;;7.10;99.90;;;;;;5506563;25;20002;-68
2024/04/21 01:37:17;;;;;;;5.50;3.47;;;7.10;99.90;;;;;;5510884;25;19993;-68
2024/04/21 01:39:43;;;;;;;6.03;3.38;;;7.10;99.90;;;;;;5513957;25;20017;-68
2024/04/21 01:42:08;;;;;;;4.90;3.75;;;7.00;99.90;;;;;;5501202;25;20009;-68
2024/04/21 01:44:35;;;;;;;4.07;2.50;;;7.00;99.90;;;;;;5508697;25;20009;-67
2024/04/21 01:47:01;;;;;;;6.85;3.50;;;6.90;99.90;;;;;;5479104;26;20010;-68
2024/04/21 01:49:28;;;;;;;5.50;3.50;;;6.90;99.90;;;;;;5511520;25;20012;-68
2024/04/21 01:51:54;;;;;;;4.95;3.03;;;6.90;99.90;;;;;;5507138;25;20009;-68
2024/04/21 01:54:19;;;;;;;3.90;3.08;;;6.80;99.90;;;;;;5483024;25;20314;-67
2024/04/21 01:56:45;;;;;;;6.40;2.90;;;6.80;99.90;;;;;;5513726;25;20469;-68
2024/04/21 01:59:10;;;;;;;4.53;3.08;;;6.80;99.90;;;;;;5478786;26;19997;-68
2024/04/21 02:01:36;;;;;;;7.65;2.92;;;6.70;99.90;;;;;;5501013;25;20327;-68
2024/04/21 02:04:02;;;;;;;8.13;2.95;;;6.70;99.90;;;;;;5483868;25;20009;-68
2024/04/21 02:06:28;;;;;;;4.03;2.50;;;6.60;99.90;;;;;;5503284;25;20086;-68
2024/04/21 02:08:54;;;;;;;3.78;2.70;;;6.50;99.90;;;;;;5483406;26;19993;-68
2024/04/21 02:11:20;;;;;;;3.67;2.53;;;6.50;99.90;;;;;;5513764;25;20012;-67
2024/04/21 02:13:45;;;;;;;3.60;2.72;;;6.50;99.90;;;;;;5507504;26;20033;-68
2024/04/21 02:16:11;;;;;;;6.55;2.47;;;6.30;99.90;;;;;;5501642;25;20357;-68
2024/04/21 02:18:36;;;;;;;3.33;2.55;;;6.30;99.90;;;;;;5505937;26;20002;-69
2024/04/21 02:21:02;;;;;;;4.43;2.47;;;6.30;99.90;;;;;;5508824;25;19994;-68
2024/04/21 02:23:28;;;;;;;4.80;2.83;;;6.20;99.90;;;;;;5509495;25;19993;-68
2024/04/21 02:26:00;;;;;;;3.40;2.58;;;6.10;99.90;;;;;;5508940;25;20004;-68
2024/04/21 02:28:26;;;;;;;5.32;2.88;;;6.10;99.90;;;;;;5507326;25;20009;-67
2024/04/21 02:30:52;;;;;;;4.25;2.45;;;6.10;99.90;;;;;;5510843;26;20087;-67
2024/04/21 02:33:18;;;;;;;4.18;2.70;;;6.00;99.90;;;;;;5507802;25;20334;-68
2024/04/21 02:35:44;;;;;;;7.50;2.83;;;6.00;99.90;;;;;;5503454;25;20013;-68
2024/04/21 02:38:11;;;;;;;4.78;3.40;;;6.00;99.90;;;;;;5513996;25;20001;-68
2024/04/21 02:40:37;;;;;;;7.22;3.40;;;5.90;99.90;;;;;;5513638;25;20065;-68
2024/04/21 02:43:03;;;;;;;6.53;3.25;;;5.90;99.90;;;;;;5479267;26;20012;-68
2024/04/21 02:45:29;;;;;;;6.72;4.10;;;5.80;99.90;;;;;;5520221;25;20038;-67
2024/04/21 02:47:55;;;;;;;6.00;3.72;;;5.80;99.90;;;;;;5511539;25;20005;-68
2024/04/21 02:50:21;;;;;;;5.88;4.05;;;5.80;99.90;;;;;;5508912;25;19994;-68
2024/04/21 02:52:46;;;;;;;6.93;4.32;;;5.80;99.90;;;;;;5481129;25;20057;-68
2024/04/21 02:55:12;;;;;;;8.27;4.85;;;5.70;99.90;;;;;;5505865;25;20000;-68
2024/04/21 02:57:38;;;;;;;8.30;4.85;;;5.70;99.90;;;;;;5502980;25;20001;-68
2024/04/21 03:00:04;;;;;;;7.50;4.57;;;5.70;99.90;;;;;;5502226;25;20004;-68
2024/04/21 03:02:29;;;;;;;9.35;5.40;;;5.60;99.90;;;;;;5501501;25;20646;-68
2024/04/21 03:04:55;;;;;;;6.90;4.50;;;5.60;99.90;;;;;;5513680;25;20005;-68
2024/04/21 03:07:20;;;;;;;7.22;4.85;;;5.50;99.90;;;;;;5479528;25;19993;-67
2024/04/21 03:09:46;;;;;;;8.45;4.97;;;5.50;99.90;;;;;;5510003;25;20063;-67
2024/04/21 03:12:11;;;;;;;10.82;4.60;;;5.50;99.90;;;;;;5511998;25;20657;-68
2024/04/21 03:14:37;;;;;;;7.97;5.15;;;5.40;99.90;;;;;;5507182;25;19997;-68
2024/04/21 03:17:03;;;;;;;9.18;4.85;;;5.40;99.90;;;;;;5473645;26;20073;-67
2024/04/21 03:19:29;;;;;;;7.18;4.40;;;5.30;99.90;;;;;;5475773;26;20030;-67
2024/04/21 03:21:55;;;;;;;7.53;4.53;;;5.30;99.90;;;;;;5512532;25;19997;-67
2024/04/21 03:24:21;;;;;;;8.52;5.47;;;5.20;99.90;;;;;;5516061;25;20637;-67
2024/04/21 03:26:46;;;;;;;8.32;4.72;;;5.20;99.90;;;;;;5509024;25;20041;-68
2024/04/21 03:29:12;;;;;;;9.50;4.60;;;5.10;99.90;;;;;;5478887;25;20009;-67
2024/04/21 03:31:38;;;;;;;7.47;4.45;;;5.10;99.90;;;;;;5512438;25;20450;-68
2024/04/21 03:34:03;;;;;;;6.63;4.28;;;5.10;99.90;;;;;;5511339;25;20022;-67
2024/04/21 03:36:29;;;;;;;8.38;4.15;;;5.00;99.90;;;;;;5481784;25;20004;-67
2024/04/21 03:38:54;;;;;;;8.85;4.35;;;5.00;99.90;;;;;;5512189;25;20001;-68
2024/04/21 03:41:20;;;;;;;7.00;4.40;;;4.90;99.90;;;;;;5508973;25;20443;-68
2024/04/21 03:43:47;;;;;;;7.82;4.55;;;4.90;99.90;;;;;;5513217;25;20331;-67
2024/04/21 03:46:13;;;;;;;8.63;4.63;;;4.90;99.90;;;;;;5498506;25;20653;-67
2024/04/21 03:48:39;;;;;;;7.50;4.60;;;4.80;99.90;;;;;;5514899;25;20059;-68
2024/04/21 03:51:05;;;;;;;8.02;4.30;;;4.80;99.90;;;;;;5482800;26;20047;-68
2024/04/21 03:53:31;;;;;;;8.82;4.18;;;4.70;99.90;;;;;;5514506;25;20811;-67
2024/04/21 03:55:56;;;;;;;6.93;4.15;;;4.70;99.90;;;;;;5513710;25;19998;-67
2024/04/21 03:58:22;;;;;;;9.43;4.45;;;4.60;99.90;;;;;;5512367;25;20009;-68
2024/04/21 04:00:48;;;;;;;8.75;4.35;;;4.60;99.90;;;;;;5502983;25;20387;-68
2024/04/21 04:03:14;;;;;;;9.18;5.18;;;4.60;99.90;;;;;;5508192;25;20012;-68
2024/04/21 04:05:43;;;;;;;6.63;4.10;;;4.50;99.90;;;;;;5509237;25;20005;-68
2024/04/21 04:08:09;;;;;;;6.55;3.92;;;4.50;99.90;;;;;;5513414;25;20012;-68
2024/04/21 04:10:34;;;;;;;5.78;3.70;;;4.40;99.90;;;;;;5511899;25;20389;-65
2024/04/21 04:13:00;;;;;;;5.95;3.70;;;4.40;99.90;;;;;;5511300;25;19994;-65
2024/04/21 04:15:25;;;;;;;5.63;3.40;;;4.40;99.90;;;;;;5500879;25;20095;-66
2024/04/21 04:17:51;;;;;;;6.80;3.47;;;4.40;99.90;;;;;;5510838;25;20351;-65
2024/04/21 04:20:17;;;;;;;5.28;3.20;;;4.40;99.90;;;;;;5508228;25;19997;-66
2024/04/21 04:22:42;;;;;;;9.45;3.88;;;4.40;99.90;;;;;;5506787;25;19998;-65
2024/04/21 04:25:09;;;;;;;5.43;3.40;;;4.30;99.90;;;;;;5510202;25;19998;-65
2024/04/21 04:27:34;;;;;;;7.75;3.75;;;4.30;99.90;;;;;;5511997;25;20020;-65
2024/04/21 04:30:00;;;;;;;4.70;3.00;;;4.30;99.90;;;;;;5514066;25;20613;-65
2024/04/21 04:32:29;;;;;;;6.28;3.70;;;4.20;99.90;;;;;;5506994;25;20070;-65
2024/04/21 04:34:55;;;;;;;5.82;3.22;;;4.20;99.90;;;;;;5508666;25;20001;-65
2024/04/21 04:37:20;;;;;;;5.75;3.35;;;4.20;99.90;;;;;;5502753;25;20082;-65
2024/04/21 04:39:47;;;;;;;6.28;3.63;;;4.10;99.90;;;;;;5512261;25;20387;-65
2024/04/21 04:42:12;;;;;;;5.03;2.85;;;4.00;99.90;;;;;;5511156;25;20077;-66
2024/04/21 04:44:38;;;;;;;6.68;2.90;;;4.00;99.90;;;;;;5510681;25;20463;-65
2024/04/21 04:47:03;;;;;;;6.75;2.80;;;4.00;99.90;;;;;;5501876;25;20038;-65
2024/04/21 04:49:29;;;;;;;6.05;3.28;;;4.00;99.90;;;;;;5478601;26;20013;-65
2024/04/21 04:51:55;;;;;;;5.85;3.17;;;4.00;99.90;;;;;;5505188;25;20053;-65
2024/04/21 04:54:20;;;;;;;5.05;3.00;;;4.00;99.90;;;;;;5483278;26;19997;-66
2024/04/21 04:56:46;;;;;;;9.55;3.30;;;4.00;99.90;;;;;;5518208;26;20009;-66
2024/04/21 04:59:11;;;;;;;4.20;2.58;;;4.00;99.90;;;;;;5472079;26;20013;-66
2024/04/21 05:01:37;;;;;;;7.88;2.90;;;4.00;99.90;;;;;;5503822;26;20036;-65
2024/04/21 05:04:02;;;;;;;3.72;2.45;;;4.00;99.90;;;;;;5504015;25;20009;-65
2024/04/21 05:06:29;;;;;;;6.00;2.80;;;4.00;99.90;;;;;;5503556;25;20517;-65
2024/04/21 05:08:55;;;;;;;5.85;3.33;;;4.00;99.90;;;;;;5480056;25;20002;-65
2024/04/21 05:11:20;;;;;;;5.00;2.80;;;4.10;99.90;;;;;;5516963;26;20005;-65
2024/04/21 05:13:46;;;;;;;5.07;2.78;;;4.10;99.90;;;;;;5465257;26;965703;-66
2024/04/21 05:16:11;;;;;;;5.03;3.10;;;4.10;99.90;;;;;;5507625;25;19997;-65
2024/04/21 05:18:37;;;;;;;6.22;2.50;;;4.10;99.90;;;;;;5484661;26;20009;-65
2024/04/21 05:21:03;;;;;;;6.57;2.97;;;4.10;99.90;;;;;;5501017;26;20463;-65
2024/04/21 05:23:30;;;;;;;4.93;2.90;;;4.20;99.90;;;;;;5502332;26;20095;-66
2024/04/21 05:25:56;;;;;;;5.57;2.97;;;4.20;99.90;;;;;;5473386;26;20009;-65
2024/04/21 05:28:22;;;;;;;5.88;3.00;;;4.20;99.90;;;;;;5515280;25;20001;-65
2024/04/21 05:30:47;;;;;;;4.20;2.97;;;4.20;99.90;;;;;;5516828;26;19997;-65
2024/04/21 05:33:13;;;;;;;8.25;3.72;;;4.30;99.90;;;;;;5497720;26;19989;-65
2024/04/21 05:35:41;;;;;;;5.75;3.50;;;4.30;99.90;;;;;;5515605;25;20006;-65
2024/04/21 05:38:07;;;;;;;9.25;4.13;;;4.30;99.90;;;;;;5511433;26;19993;-65
2024/04/21 05:40:32;;;;;;;7.05;3.55;;;4.40;99.90;;;;;;5513244;26;20002;-66
2024/04/21 05:42:58;;;;;;;9.20;4.20;;;4.40;99.90;;;;;;5500699;25;20872;-65
2024/04/21 05:45:23;;;;;;;6.47;3.65;;;4.50;99.90;;;;;;5475127;26;20017;-65
2024/04/21 05:47:49;;;;;;;5.78;3.58;;;4.50;99.90;;;;;;5503435;26;19997;-66
2024/04/21 05:50:15;;;;;;;7.88;4.00;;;4.50;99.90;;;;;;5509882;26;19994;-65
2024/04/21 05:52:40;;;;;;;6.50;3.70;;;4.70;99.90;;;;;;5477927;26;20009;-66
2024/04/21 05:55:06;;;;;;;5.45;3.53;;;4.60;99.90;;;;;;5506116;26;19993;-66
2024/04/21 05:57:31;;;;;;;6.70;3.67;;;4.70;99.90;;;;;;5511760;25;20120;-66
2024/04/21 05:59:57;;;;;;;6.03;3.13;;;4.60;99.90;;;;;;5510931;25;19989;-66
2024/04/21 06:02:22;;;;;;;7.47;3.65;;;4.70;99.90;;;;;;5472416;26;20011;-65
2024/04/21 06:04:48;;;;;;;6.43;3.67;;;4.80;99.90;;;;;;5497383;25;20004;-65
2024/04/21 06:07:13;;;;;;;7.55;3.78;;;4.80;99.90;;;;;;5498020;26;20065;-66
2024/04/21 06:09:40;;;;;;;8.45;3.97;;;4.90;99.90;;;;;;5473403;26;20482;-66
2024/04/21 06:12:07;;;;;;;8.15;3.67;;;5.00;99.90;;;;;;5508001;25;20075;-66
2024/04/21 06:14:32;;;;;;;7.95;3.92;;;5.00;99.90;;;;;;5505402;26;19997;-66
2024/04/21 06:16:58;;;;;;;9.18;3.70;;;5.10;99.90;;;;;;5481928;26;20599;-66
2024/04/21 06:19:23;;;;;;;8.02;4.18;;;5.20;99.90;;;;;;5504085;25;19989;-66
2024/04/21 06:21:49;;;;;;;9.60;3.88;;;5.20;99.90;;;;;;5503201;25;20901;-66
2024/04/21 06:24:14;;;;;;;5.43;3.05;;;5.30;99.90;;;;;;5472116;26;20016;-66
2024/04/21 06:26:41;;;;;;;4.95;3.00;;;5.40;99.90;;;;;;5493743;26;20003;-66
2024/04/21 06:29:07;;;;;;;6.18;3.60;;;5.40;99.90;;;;;;5473154;26;19999;-69
2024/04/21 06:31:33;;;;;;;9.73;3.95;;;5.50;99.90;;;;;;5467695;26;20022;-66
2024/04/21 06:33:58;;;;;;;6.57;3.53;;;5.60;99.90;;;;;;5477342;26;20667;-66
2024/04/21 06:36:24;;;;;;;6.75;3.25;;;5.70;99.90;;;;;;5465844;26;20331;-66
2024/04/21 06:38:51;;;;;;;7.95;3.78;;;5.70;99.90;;;;;;5478167;26;20008;-67
2024/04/21 06:41:17;;;;;;;6.37;3.27;;;5.80;99.90;;;;;;5478334;26;19994;-65
2024/04/21 06:43:42;;;;;;;9.40;3.60;;;5.90;99.90;;;;;;5444083;26;20783;-66
2024/04/21 06:46:08;;;;;;;9.48;3.72;;;6.00;99.90;;;;;;5475335;26;20520;-66
2024/04/21 06:48:34;;;;;;;8.07;3.72;;;6.00;99.90;;;;;;5508718;26;20005;-66
2024/04/21 06:50:59;;;;;;;7.30;3.28;;;6.10;99.90;;;;;;5510840;26;20009;-66
2024/04/21 06:53:25;;;;;;;7.65;3.78;;;6.20;99.90;;;;;;5509056;26;20011;-67
2024/04/21 06:55:51;;;;;;;7.88;3.42;;;6.30;99.90;;;;;;5501254;25;19997;-66
2024/04/21 06:58:18;;;;;;;9.25;3.72;;;6.40;99.90;;;;;;5509296;26;20602;-66
2024/04/21 07:00:44;;;;;;;5.45;3.25;;;6.50;99.90;;;;;;5509497;25;20002;-66
2024/04/21 07:03:10;;;;;;;9.90;3.67;;;6.60;99.90;;;;;;5511065;25;20013;-66
2024/04/21 07:05:36;;;;;;;6.47;3.20;;;6.60;99.90;;;;;;5477925;26;20457;-66
2024/04/21 07:08:02;;;;;;;6.65;3.55;;;6.70;99.90;;;;;;5511567;26;20654;-66
2024/04/21 07:10:27;;;;;;;7.10;3.55;;;6.80;99.90;;;;;;5509880;25;20096;-66
2024/04/21 07:12:53;;;;;;;10.57;4.65;;;6.90;99.90;;;;;;5508340;26;20433;-66
2024/04/21 07:15:18;;;;;;;8.10;3.90;;;6.90;99.90;;;;;;5510998;26;20004;-66
2024/04/21 07:17:44;;;;;;;6.72;3.83;;;7.00;99.90;;;;;;5511071;26;19993;-66
2024/04/21 07:20:09;;;;;;;6.95;3.65;;;7.10;99.90;;;;;;5505707;26;20065;-64
2024/04/21 07:22:35;;;;;;;6.60;3.55;;;7.10;99.90;;;;;;5502929;25;19998;-64
2024/04/21 07:25:01;;;;;;;6.70;3.40;;;7.10;99.90;;;;;;5513729;25;20001;-64
2024/04/21 07:27:27;;;;;;;8.95;3.65;;;7.20;99.90;;;;;;5512021;26;20002;-64
2024/04/21 07:29:53;;;;;;;10.23;4.32;;;7.20;99.90;;;;;;5505675;26;20005;-64
2024/04/21 07:32:19;;;;;;;8.82;3.90;;;7.30;99.90;;;;;;5507520;26;19993;-64
2024/04/21 07:34:45;;;;;;;7.35;3.80;;;7.30;99.90;;;;;;5511808;25;20024;-64
2024/04/21 07:37:10;;;;;;;8.32;4.05;;;7.40;99.90;;;;;;5510643;25;20081;-65
2024/04/21 07:39:36;;;;;;;7.75;4.20;;;7.40;99.90;;;;;;5482325;26;19994;-64
2024/04/21 07:42:01;;;;;;;11.35;4.07;;;7.60;99.90;;;;;;5513865;26;20564;-64
2024/04/21 07:44:27;;;;;;;8.65;4.53;;;7.70;99.90;;;;;;5512970;26;20001;-64
2024/04/21 07:46:53;;;;;;;7.90;4.13;;;7.80;99.70;;;;;;5478882;26;20013;-64
2024/04/21 07:49:18;;;;;;;7.55;4.07;;;7.70;99.30;;;;;;5513255;25;20005;-65
2024/04/21 07:51:44;;;;;;;10.20;4.25;;;7.80;99.50;;;;;;5472669;25;20069;-65
2024/04/21 07:54:09;;;;;;;8.00;3.55;;;7.80;99.20;;;;;;5514704;26;19994;-65
2024/04/21 07:56:35;;;;;;;7.13;3.70;;;7.80;98.90;;;;;;5510587;26;20460;-65
2024/04/21 07:59:00;;;;;;;9.05;3.53;;;7.90;98.40;;;;;;5480138;26;20021;-65
2024/04/21 08:01:26;;;;;;;6.68;3.42;;;8.00;97.70;;;;;;5509345;26;20029;-65
2024/04/21 08:03:51;;;;;;;8.77;3.38;;;8.00;97.50;;;;;;5480154;25;20009;-65
2024/04/21 08:06:17;;;;;;;6.03;3.28;;;8.10;97.50;;;;;;5482838;26;20001;-65
2024/04/21 08:08:43;;;;;;;5.65;3.03;;;8.10;97.10;;;;;;5485309;26;20526;-64
2024/04/21 08:11:09;;;;;;;6.50;3.10;;;8.10;96.90;;;;;;5513783;26;20013;-65
2024/04/21 08:13:35;;;;;;;6.15;2.80;;;8.00;96.50;;;;;;5517319;26;20879;-65
2024/04/21 08:16:01;;;;;;;5.10;2.97;;;8.00;96.20;;;;;;5517825;26;19997;-65
2024/04/21 08:18:26;;;;;;;10.00;2.88;;;7.80;95.50;;;;;;5503551;26;20016;-64
2024/04/21 08:20:52;;;;;;;5.68;2.72;;;7.90;96.00;;;;;;5510229;26;20068;-64
2024/04/21 08:23:18;;;;;;;8.90;2.70;;;7.90;95.50;;;;;;5483933;26;20029;-64
2024/04/21 08:25:46;;;;;;;5.88;2.92;;;8.00;95.40;;;;;;5507725;26;19990;-64
2024/04/21 08:28:12;;;;;;;4.35;2.50;;;8.10;95.10;;;;;;5507688;26;20088;-65
2024/04/21 08:30:38;;;;;;;6.45;2.70;;;8.10;95.00;;;;;;5514181;26;20530;-65
2024/04/21 08:33:04;;;;;;;5.55;2.35;;;8.20;95.10;;;;;;5505878;25;20009;-64
2024/04/21 08:35:30;;;;;;;3.90;2.38;;;8.20;94.40;;;;;;5511305;26;20001;-65
2024/04/21 08:37:56;;;;;;;6.90;2.42;;;8.20;94.40;;;;;;5512811;26;20048;-65
2024/04/21 08:40:22;;;;;;;3.08;2.00;;;8.20;94.40;;;;;;5506194;26;20687;-65
2024/04/21 08:42:50;;;;;;;4.10;2.17;;;8.20;93.90;;;;;;5508196;26;20124;-64
2024/04/21 08:45:20;;;;;;;2.75;1.90;;;8.40;94.60;;;;;;5501791;26;20439;-65
2024/04/21 08:47:46;;;;;;;3.65;2.28;;;8.60;94.30;;;;;;5502587;25;20001;-66
2024/04/21 08:50:13;;;;;;;4.00;2.00;;;8.70;93.80;;;;;;5506381;26;20009;-66
2024/04/21 08:52:39;;;;;;;4.05;2.15;;;8.80;93.70;;;;;;5507000;25;19993;-65
2024/04/21 08:55:06;;;;;;;3.30;2.10;;;8.80;92.80;;;;;;5484611;26;19993;-66
2024/04/21 08:57:33;;;;;;;3.00;1.80;;;8.80;92.50;;;;;;5516256;26;20001;-65
2024/04/21 08:59:59;;;;;;;4.80;1.92;;;8.60;92.20;;;;;;5515421;26;20001;-65
2024/04/21 09:02:27;;;;;;;3.17;1.85;;;8.60;92.10;;;;;;5498186;25;20074;-65
2024/04/21 09:04:55;;;;;;;2.75;1.60;;;8.60;92.40;;;;;;5476733;26;20082;-64
2024/04/21 09:07:23;;;;;;;3.92;1.95;;;8.70;91.80;;;;;;5505569;26;20781;-65
2024/04/21 09:09:49;;;;;;;4.20;1.98;;;8.70;92.10;;;;;;5481878;26;20031;-65
2024/04/21 09:12:15;;;;;;;7.40;2.58;;;8.70;91.70;;;;;;5475851;25;20008;-65
2024/04/21 09:14:41;;;;;;;3.55;1.95;;;8.70;91.60;;;;;;5478866;26;21014;-64
2024/04/21 09:17:07;;;;;;;4.53;2.38;;;8.70;91.60;;;;;;5503499;25;20005;-65
2024/04/21 09:19:33;;;;;;;5.10;2.40;;;8.80;92.20;;;;;;5502716;25;20653;-65
2024/04/21 09:21:58;;;;;;;2.85;2.15;;;9.00;92.20;;;;;;5509593;25;20001;-65
2024/04/21 09:24:24;;;;;;;3.78;1.95;;;9.20;92.80;;;;;;5502241;25;20070;-65
2024/04/21 09:26:49;;;;;;;4.68;1.90;;;9.40;92.00;;;;;;5508878;25;20013;-65
2024/04/21 09:29:15;;;;;;;2.08;1.70;;;9.60;89.40;;;;;;5472827;26;19998;-65
2024/04/21 09:31:42;;;;;;;2.45;1.50;;;9.70;90.10;;;;;;5500569;25;20013;-65
2024/04/21 09:34:07;;;;;;;3.67;1.25;;;9.90;90.10;;;;;;5506973;25;20465;-65
2024/04/21 09:36:33;;;;;;;3.88;1.70;;;10.10;89.10;;;;;;5506687;25;19997;-65
2024/04/21 09:39:00;;;;;;;3.92;1.45;;;10.10;88.00;;;;;;5508606;25;20005;-65
2024/04/21 09:41:27;;;;;;;4.28;1.65;;;10.10;85.30;;;;;;5510442;25;19998;-65
2024/04/21 09:43:54;;;;;;;5.10;1.67;;;9.90;84.70;;;;;;5509150;25;20062;-65
2024/04/21 09:46:20;;;;;;;2.63;1.40;;;9.70;83.60;;;;;;5475287;26;19998;-64
2024/04/21 09:48:50;;;;;;;1.90;1.13;;;9.60;83.40;;;;;;5488622;25;20046;-65
2024/04/21 09:51:16;;;;;;;5.05;1.98;;;9.50;84.30;;;;;;5495173;25;20005;-65
2024/04/21 09:53:45;;;;;;;3.13;1.63;;;9.50;85.40;;;;;;5512477;25;20084;-65
2024/04/21 09:56:18;;;;;;;5.07;1.95;;;9.40;86.20;;;;;;5507781;25;20001;-65
2024/04/21 09:58:48;;;;;;;3.03;1.77;;;9.30;86.70;;;;;;5510585;25;20002;-65
2024/04/21 10:01:31;;;;;;;3.80;1.70;;;9.40;87.70;;;;;;5501127;25;20037;-65
2024/04/21 10:04:02;;;;;;;2.50;1.55;;;9.40;88.70;;;;;;5506544;25;20062;-65
2024/04/21 10:06:31;;;;;;;2.20;1.55;;;9.30;87.30;;;;;;5503572;25;20002;-65
2024/04/21 10:09:00;;;;;;;2.85;1.40;;;9.30;86.60;;;;;;5476833;26;20009;-65
2024/04/21 10:11:26;;;;;;;5.10;1.30;;;9.40;85.50;;;;;;5480761;26;20517;-65
2024/04/21 10:13:53;;;;;;;2.00;1.25;;;9.70;86.00;;;;;;5508522;25;20005;-65
2024/04/21 10:16:21;;;;;;;2.30;1.20;;;9.70;84.30;;;;;;5497732;25;20013;-65
2024/04/21 10:18:47;;;;;;;3.17;1.67;;;9.50;83.50;;;;;;5502545;25;20005;-65
2024/04/21 10:21:14;;;;;;;2.80;1.60;;;9.30;84.10;;;;;;5507183;25;20012;-65
2024/04/21 10:23:40;;;;;;;1.17;1.02;;;9.20;84.40;;;;;;5506591;25;20002;-65
2024/04/21 10:26:08;;;;;;;1.98;1.58;;;9.10;85.30;;;;;;5474035;25;19997;-66
2024/04/21 10:28:34;;;;;;;4.60;1.38;;;9.40;85.40;;;;;;5471089;25;20043;-65
2024/04/21 10:31:06;;;;;;;3.92;1.55;;;9.70;86.40;;;;;;5497813;25;20024;-64
2024/04/21 10:33:32;;;;;;;3.53;1.27;;;9.80;85.30;;;;;;5504813;25;20464;-64
2024/04/21 10:35:58;;;;;;;3.42;1.73;;;10.00;84.10;;;;;;5479234;26;20016;-64
2024/04/21 10:38:25;;;;;;;3.15;1.63;;;10.20;84.60;;;;;;5502545;25;19998;-64
2024/04/21 10:40:50;;;;;;;2.53;1.58;;;10.40;84.90;;;;;;5500042;25;20402;-64
2024/04/21 10:43:20;;;;;;;1.98;1.38;;;10.70;85.00;;;;;;5504854;25;20346;-64
2024/04/21 10:45:46;;;;;;;4.80;1.88;;;10.80;83.40;;;;;;5496920;25;19993;-64
2024/04/21 10:48:11;;;;;;;1.67;1.23;;;10.60;82.10;;;;;;5501841;25;20048;-62
2024/04/21 10:50:39;;;;;;;2.28;1.30;;;10.30;78.90;;;;;;5508472;25;20817;-63
2024/04/21 10:53:06;;;;;;;2.53;1.60;;;10.20;79.70;;;;;;5502333;25;20001;-64
2024/04/21 10:55:33;;;;;;;4.07;1.70;;;10.10;80.20;;;;;;5503073;25;20073;-63
2024/04/21 10:58:06;;;;;;;2.38;1.55;;;10.40;81.60;;;;;;5508944;25;20096;-64
2024/04/21 11:00:36;;;;;;;2.78;1.90;;;10.70;79.80;;;;;;5504701;25;20004;-58
2024/04/21 11:03:02;;;;;;;4.93;1.75;;;10.70;79.50;;;;;;5504532;25;20009;-65
2024/04/21 11:05:36;;;;;;;3.35;1.80;;;10.70;79.20;;;;;;5506388;25;20037;-65
2024/04/21 11:08:02;;;;;;;2.22;1.65;;;10.60;81.20;;;;;;5510560;25;20384;-65
2024/04/21 11:10:27;;;;;;;4.60;1.70;;;10.90;82.90;;;;;;5506511;25;20002;-64
2024/04/21 11:12:53;;;;;;;1.65;1.35;;;11.10;80.80;;;;;;5502983;25;20016;-64
2024/04/21 11:15:19;;;;;;;2.13;1.48;;;11.00;80.80;;;;;;5506510;25;19994;-67
2024/04/21 11:17:44;;;;;;;2.72;1.65;;;11.00;80.70;;;;;;5501945;25;20069;-63
2024/04/21 11:20:10;;;;;;;2.85;1.60;;;10.80;80.90;;;;;;5476687;26;20038;-65
2024/04/21 11:22:37;;;;;;;9.88;2.95;;;10.80;80.40;;;;;;5504652;25;20115;-69
2024/04/21 11:25:04;;;;;;;2.70;1.75;;;10.70;82.30;;;;;;5504632;25;20006;-68
2024/04/21 11:27:29;;;;;;;2.80;1.45;;;11.10;82.60;;;;;;5477233;25;20037;-67
2024/04/21 11:29:55;;;;;;;3.00;1.77;;;11.40;82.40;;;;;;5504517;25;21073;-67
2024/04/21 11:32:21;;;;;;;2.92;1.50;;;11.70;80.80;;;;;;5475952;26;20006;-67
2024/04/21 11:34:47;;;;;;;1.40;1.00;;;11.80;80.10;;;;;;5508847;25;20050;-68
2024/04/21 11:37:18;;;;;;;2.47;1.45;;;11.80;83.00;;;;;;5510932;25;20299;-67
2024/04/21 11:39:44;;;;;;;2.22;1.52;;;12.10;79.50;;;;;;5511191;25;20030;-70
2024/04/21 11:42:09;;;;;;;4.18;1.60;;;12.00;78.30;;;;;;5497153;25;20394;-65
2024/04/21 11:44:35;;;;;;;1.85;1.05;;;12.20;78.10;;;;;;5505761;25;20024;-66
2024/04/21 11:47:01;;;;;;;4.03;1.50;;;12.20;78.10;;;;;;5512643;25;19989;-64
2024/04/21 11:49:27;;;;;;;5.28;1.35;;;12.10;75.70;;;;;;5475534;26;20077;-64
2024/04/21 11:51:52;;;;;;;2.42;1.40;;;12.10;76.50;;;;;;5513660;25;20005;-64
2024/04/21 11:54:18;;;;;;;2.35;1.42;;;12.00;76.20;;;;;;5502023;25;20002;-64
2024/04/21 11:56:43;;;;;;;2.58;1.48;;;11.80;75.90;;;;;;5501139;25;19993;-64
2024/04/21 11:59:09;;;;;;;1.42;1.30;;;11.60;74.60;;;;;;5510011;25;19994;-64
2024/04/21 12:01:35;;;;;;;2.03;1.50;;;11.50;76.80;;;;;;5506203;25;20001;-64
2024/04/21 12:04:00;;;;;;;2.22;1.38;;;11.90;77.20;;;;;;5503360;25;19994;-64
2024/04/21 12:06:26;;;;;;;3.63;1.60;;;12.40;78.00;;;;;;5480850;25;19998;-64
2024/04/21 12:08:51;;;;;;;2.80;1.55;;;12.30;77.10;;;;;;5505362;25;20554;-65
2024/04/21 12:11:17;;;;;;;2.42;1.35;;;12.40;76.60;;;;;;5501487;25;20001;-64
2024/04/21 12:13:42;;;;;;;3.35;1.40;;;12.30;75.20;;;;;;5499277;25;20006;-64
2024/04/21 12:16:08;;;;;;;1.40;1.00;;;12.20;74.00;;;;;;5499441;25;20002;-64
2024/04/21 12:18:34;;;;;;;2.83;1.63;;;12.10;75.90;;;;;;5507642;25;19994;-64
2024/04/21 12:21:00;;;;;;;2.35;1.42;;;12.20;77.50;;;;;;5504709;25;20013;-64
2024/04/21 12:23:26;;;;;;;1.92;1.13;;;12.80;79.60;;;;;;5503917;25;20001;-64
2024/04/21 12:25:51;;;;;;;2.03;1.40;;;13.50;79.60;;;;;;5501868;25;20005;-64
2024/04/21 12:28:17;;;;;;;5.38;1.50;;;14.20;78.40;;;;;;5501423;25;20012;-64
2024/04/21 12:30:42;;;;;;;3.78;1.58;;;14.80;74.40;;;;;;5495304;25;20700;-64
2024/04/21 12:33:08;;;;;;;2.97;1.30;;;14.70;70.90;;;;;;5504539;25;20338;-63
2024/04/21 12:35:33;;;;;;;4.20;1.38;;;14.30;70.40;;;;;;5508377;25;20009;-63
2024/04/21 12:37:59;;;;;;;1.42;1.10;;;14.10;69.80;;;;;;5508442;25;19998;-64
2024/04/21 12:40:25;;;;;;;1.42;1.10;;;13.90;71.30;;;;;;5507331;25;20074;-64
2024/04/21 12:42:50;;;;;;;4.97;1.35;;;13.90;70.40;;;;;;5509835;26;19994;-64
2024/04/21 12:45:16;;;;;;;3.67;1.27;;;13.60;71.20;;;;;;5501400;25;20424;-64
2024/04/21 12:47:41;;;;;;;1.42;1.17;;;13.30;71.90;;;;;;5501809;26;20014;-64
2024/04/21 12:50:07;;;;;;;2.13;1.67;;;13.00;72.10;;;;;;5475126;26;20877;-64